Time;durP1;ratioP1;P1;durP2;ratioP2;P2;SDS_P1;SDS_P2;PMS_P1;PMS_P2;Temp;Humidity;BMP_temperature;BMP_pressure;BME280_temperature;BME280_humidity;BME280_pressure;Samples;Min_cycle;Max_cycle;Signal;HPM_P1;HPM_P2
2022/10/13 00:04:59;;;;;;;11.82;4.38;;;;;;;6.39;88.30;101789.56;10115930;29;20045;-75
2022/10/13 00:10:01;;;;;;;12.32;4.57;;;;;;;6.45;88.48;101784.66;10116577;29;20346;-75
2022/10/13 00:15:04;;;;;;;8.25;4.05;;;;;;;6.51;88.59;101776.28;10101635;29;20053;-75
2022/10/13 00:20:07;;;;;;;11.57;4.65;;;;;;;6.56;88.72;101780.00;10116565;29;20048;-75
2022/10/13 00:25:09;;;;;;;16.98;5.03;;;;;;;6.64;88.88;101767.38;10114899;29;20136;-75
2022/10/13 00:30:11;;;;;;;14.48;5.28;;;;;;;6.73;88.90;101773.00;10102874;29;20072;-74
2022/10/13 00:35:12;;;;;;;11.05;4.65;;;;;;;6.81;89.09;101769.06;10119093;29;20112;-76
2022/10/13 00:40:14;;;;;;;14.30;5.20;;;;;;;6.87;89.19;101771.94;10112917;29;20060;-76
2022/10/13 00:45:20;;;;;;;11.52;4.85;;;;;;;6.93;89.23;101760.06;10097263;29;20076;-74
2022/10/13 00:50:30;;;;;;;11.52;4.68;;;;;;;7.04;89.13;101753.63;10111413;29;20060;-74
2022/10/13 00:55:35;;;;;;;11.27;4.68;;;;;;;7.07;89.13;101749.47;10115707;29;20106;-75
2022/10/13 01:00:37;;;;;;;15.95;5.10;;;;;;;7.06;89.24;101746.81;10101605;29;20069;-76
2022/10/13 01:05:41;;;;;;;18.15;5.07;;;;;;;7.03;89.15;101741.44;10111391;29;20052;-76
2022/10/13 01:10:51;;;;;;;12.20;5.75;;;;;;;7.03;89.16;101738.84;10118422;29;20124;-75
2022/10/13 01:16:16;;;;;;;16.25;6.15;;;;;;;7.00;89.17;101734.38;10105942;29;20116;-75
2022/10/13 01:21:25;;;;;;;9.82;4.40;;;;;;;7.02;89.07;101734.44;10093575;29;20124;-76
2022/10/13 01:26:48;;;;;;;14.07;5.13;;;;;;;6.96;89.09;101728.97;10083815;29;20068;-78
2022/10/13 01:32:05;;;;;;;13.75;4.43;;;;;;;6.84;89.10;101735.34;10081183;29;20060;-75
2022/10/13 01:37:19;;;;;;;13.43;5.43;;;;;;;6.78;89.06;101727.25;10110217;29;20048;-77
2022/10/13 01:42:30;;;;;;;12.50;4.43;;;;;;;6.71;89.06;101723.50;10113639;29;20073;-75
2022/10/13 01:47:34;;;;;;;11.30;4.82;;;;;;;6.64;89.14;101718.81;10111069;29;20056;-78
2022/10/13 01:52:38;;;;;;;12.15;4.32;;;;;;;6.62;89.04;101715.25;10111996;29;20139;-78
2022/10/13 01:57:42;;;;;;;15.32;5.07;;;;;;;6.62;89.09;101709.13;10112093;29;20060;-78
2022/10/13 02:03:01;;;;;;;11.27;4.85;;;;;;;6.62;89.20;101702.22;10099477;29;20861;-75
2022/10/13 02:08:12;;;;;;;14.20;5.72;;;;;;;6.61;89.31;101704.75;10105605;29;20076;-75
2022/10/13 02:13:16;;;;;;;15.95;5.25;;;;;;;6.63;89.46;101692.69;10110700;29;20048;-77
2022/10/13 02:18:22;;;;;;;11.85;5.13;;;;;;;6.64;89.55;101689.28;10110609;29;20061;-76
2022/10/13 02:23:25;;;;;;;24.00;6.57;;;;;;;6.72;89.14;101682.72;10116335;29;20057;-75
2022/10/13 02:28:28;;;;;;;19.70;5.75;;;;;;;6.83;89.63;101685.81;10115058;29;20052;-78
2022/10/13 02:33:29;;;;;;;18.23;5.43;;;;;;;6.83;89.74;101678.94;10107166;29;20061;-76
2022/10/13 02:38:31;;;;;;;14.00;5.85;;;;;;;6.86;89.79;101670.34;10114829;29;20049;-75
2022/10/13 02:43:36;;;;;;;14.25;5.75;;;;;;;6.92;89.96;101675.84;10118112;29;20089;-77
2022/10/13 02:48:37;;;;;;;15.68;6.18;;;;;;;7.01;89.84;101672.75;10102503;29;20100;-77
2022/10/13 02:53:39;;;;;;;16.95;6.65;;;;;;;7.03;90.00;101672.03;10123055;29;20480;-76
2022/10/13 02:58:40;;;;;;;21.52;6.20;;;;;;;7.01;90.06;101670.16;10106508;29;20056;-75
2022/10/13 03:03:42;;;;;;;18.75;6.43;;;;;;;7.03;90.04;101671.13;10101444;29;20057;-77
2022/10/13 03:08:44;;;;;;;15.52;6.10;;;;;;;7.06;90.20;101668.66;10122000;29;20548;-77
2022/10/13 03:13:45;;;;;;;18.50;5.88;;;;;;;7.10;90.27;101670.59;10113085;29;20538;-75
2022/10/13 03:18:47;;;;;;;;;;;;;;;7.12;90.34;101648.13;10116454;29;20052;-75
2022/10/13 03:23:49;;;;;;;14.98;6.32;;;;;;;7.15;90.54;101652.56;10122279;29;19928;-78
2022/10/13 03:28:52;;;;;;;17.48;6.05;;;;;;;7.18;90.25;101642.28;10106551;29;20108;-75
2022/10/13 03:33:54;;;;;;;14.25;5.88;;;;;;;7.21;90.33;101648.50;10114598;29;20600;-75
2022/10/13 03:38:55;;;;;;;19.67;6.60;;;;;;;7.21;90.33;101648.50;10110265;29;20120;-77
2022/10/13 03:43:57;;;;;;;14.63;6.30;;;;;;;7.24;90.33;101648.66;10121134;29;20049;-75
2022/10/13 03:48:58;;;;;;;20.60;7.60;;;;;;;7.33;90.50;101647.28;10109902;29;20425;-75
2022/10/13 03:54:02;;;;;;;20.63;7.63;;;;;;;7.37;90.50;101638.75;10116396;29;20164;-76
2022/10/13 03:59:04;;;;;;;17.63;7.07;;;;;;;7.43;90.55;101639.03;10119708;29;20895;-74
2022/10/13 04:04:08;;;;;;;22.08;6.88;;;;;;;7.46;90.41;101626.16;10116979;29;20053;-76
2022/10/13 04:09:11;;;;;;;18.08;7.13;;;;;;;7.49;90.43;101615.88;10112777;29;20064;-77
2022/10/13 04:14:13;;;;;;;20.63;8.15;;;;;;;7.56;90.35;101601.38;10115201;29;20060;-78
2022/10/13 04:19:15;;;;;;;18.85;7.63;;;;;;;7.55;90.37;101595.28;10116238;29;20053;-75
2022/10/13 04:24:17;;;;;;;19.48;7.28;;;;;;;7.55;90.51;101607.41;10101101;29;20048;-75
2022/10/13 04:29:18;;;;;;;14.35;6.70;;;;;;;7.58;90.42;101605.81;10119143;29;20108;-77
2022/10/13 04:34:22;;;;;;;21.42;7.55;;;;;;;7.61;90.35;101612.88;10101334;29;20053;-77
2022/10/13 04:39:24;;;;;;;20.90;7.72;;;;;;;7.64;90.43;101606.91;10118476;29;20056;-75
2022/10/13 04:44:25;;;;;;;24.45;7.15;;;;;;;7.71;90.44;101602.00;10114449;29;20052;-76
2022/10/13 04:49:27;;;;;;;27.73;8.07;;;;;;;7.78;90.45;101592.75;10117546;29;20104;-75
2022/10/13 04:54:29;;;;;;;18.55;7.32;;;;;;;7.81;90.34;101581.53;10092646;29;20053;-75
2022/10/13 04:59:30;;;;;;;19.73;7.95;;;;;;;7.83;90.41;101585.09;10116121;29;20052;-78
2022/10/13 05:04:32;;;;;;;23.05;8.25;;;;;;;7.84;90.10;101566.03;10109625;29;20048;-75
2022/10/13 05:09:34;;;;;;;17.45;8.73;;;;;;;7.86;90.40;101573.06;10117646;29;20059;-74
2022/10/13 05:14:41;;;;;;;19.58;9.70;;;;;;;7.90;90.33;101582.81;10089368;29;20068;-76
2022/10/13 05:19:43;;;;;;;23.77;9.55;;;;;;;7.93;90.37;101556.84;10114446;29;20243;-75
2022/10/13 05:24:44;;;;;;;17.67;8.63;;;;;;;7.96;90.25;101562.19;10112706;29;20104;-75
2022/10/13 05:29:46;;;;;;;26.80;9.57;;;;;;;7.97;90.27;101555.25;10108631;29;20111;-75
2022/10/13 05:34:48;;;;;;;22.10;9.13;;;;;;;7.97;90.31;101563.97;10094711;29;20059;-75
2022/10/13 05:39:50;;;;;;;26.13;9.90;;;;;;;7.99;90.45;101553.59;10099367;29;20084;-76
2022/10/13 05:44:52;;;;;;;22.80;10.05;;;;;;;8.04;90.46;101562.50;10100389;29;20184;-75
2022/10/13 05:49:54;;;;;;;25.60;9.93;;;;;;;8.10;90.64;101548.81;10107651;29;20395;-75
2022/10/13 05:55:01;;;;;;;34.83;10.23;;;;;;;8.13;90.74;101555.03;10102094;29;20049;-75
2022/10/13 06:00:07;;;;;;;25.80;10.38;;;;;;;8.18;90.79;101559.53;10098263;29;20099;-75
2022/10/13 06:05:16;;;;;;;21.30;9.98;;;;;;;8.30;91.14;101549.56;10091121;29;20442;-75
2022/10/13 06:10:18;;;;;;;22.80;10.55;;;;;;;8.43;91.25;101536.16;10087823;29;20049;-77
2022/10/13 06:15:19;;;;;;;28.45;11.77;;;;;;;8.42;91.42;101564.81;10108271;29;20386;-75
2022/10/13 06:20:29;;;;;;;21.60;11.18;;;;;;;8.39;91.11;101543.81;10099622;29;20679;-75
2022/10/13 06:25:31;;;;;;;20.38;10.55;;;;;;;8.45;91.15;101538.88;10102376;29;20057;-76
2022/10/13 06:30:32;;;;;;;25.08;10.18;;;;;;;8.45;91.19;101529.34;10115251;29;20060;-76
2022/10/13 06:35:35;;;;;;;23.42;11.60;;;;;;;8.54;91.22;101534.00;10111393;29;20101;-74
2022/10/13 06:40:36;;;;;;;23.55;10.30;;;;;;;8.58;91.22;101548.94;10083672;29;20720;-74
2022/10/13 06:45:38;;;;;;;28.30;10.25;;;;;;;8.64;91.23;101551.78;10101200;29;20049;-77
2022/10/13 06:50:40;;;;;;;23.38;11.25;;;;;;;8.72;91.31;101551.16;10113437;29;20105;-76
2022/10/13 06:55:43;;;;;;;30.95;10.85;;;;;;;8.79;91.38;101551.44;10108586;29;20180;-75
2022/10/13 07:00:50;;;;;;;24.65;10.98;;;;;;;8.83;91.42;101565.53;10103160;29;20104;-77
2022/10/13 07:05:52;;;;;;;28.50;11.73;;;;;;;8.89;91.26;101563.13;10114163;29;20064;-75
2022/10/13 07:10:54;;;;;;;24.40;11.57;;;;;;;8.97;91.46;101545.13;10098914;29;20172;-74
2022/10/13 07:15:56;;;;;;;23.65;11.32;;;;;;;9.08;91.41;101528.09;10110441;29;20065;-75
2022/10/13 07:20:58;;;;;;;25.17;11.52;;;;;;;9.19;91.43;101533.72;10106443;29;20060;-76
2022/10/13 07:26:00;;;;;;;24.02;11.63;;;;;;;9.29;91.34;101538.44;10100235;29;20064;-77
2022/10/13 07:31:15;;;;;;;24.60;11.60;;;;;;;9.41;91.04;101537.03;10101716;29;20048;-77
2022/10/13 07:36:17;;;;;;;24.90;11.98;;;;;;;9.57;90.84;101533.22;10106931;29;20833;-76
2022/10/13 07:41:19;;;;;;;32.72;10.98;;;;;;;9.71;91.07;101527.63;10081447;29;20053;-76
2022/10/13 07:46:23;;;;;;;26.55;12.10;;;;;;;9.93;90.90;101528.28;10082273;29;20064;-78
2022/10/13 07:51:26;;;;;;;27.65;11.55;;;;;;;10.09;90.56;101530.56;10111376;29;20071;-77
2022/10/13 07:56:27;;;;;;;26.00;11.80;;;;;;;10.15;90.42;101532.47;10075497;29;20167;-77
2022/10/13 08:01:29;;;;;;;25.75;12.38;;;;;;;10.29;90.48;101527.66;10082284;29;20045;-75
2022/10/13 08:06:32;;;;;;;28.38;12.30;;;;;;;10.44;90.01;101522.03;10111500;29;20830;-78
2022/10/13 08:11:35;;;;;;;25.20;12.82;;;;;;;10.60;89.90;101516.38;10109222;29;20105;-77
2022/10/13 08:16:38;;;;;;;28.73;11.77;;;;;;;10.77;89.48;101509.00;10109850;29;20049;-77
2022/10/13 08:21:41;;;;;;;27.63;12.25;;;;;;;10.84;89.20;101528.41;10112187;29;20571;-78
2022/10/13 08:27:01;;;;;;;23.30;12.15;;;;;;;10.88;88.96;101518.88;10088454;29;20064;-77
2022/10/13 08:32:03;;;;;;;24.88;11.75;;;;;;;10.97;88.69;101513.88;10084361;29;20587;-79
2022/10/13 08:37:05;;;;;;;29.27;11.48;;;;;;;11.07;88.54;101521.16;10105775;29;20057;-79
2022/10/13 08:42:17;;;;;;;30.08;11.82;;;;;;;11.21;88.28;101523.25;10106628;29;20057;-77
2022/10/13 08:48:02;;;;;;;28.10;11.57;;;;;;;11.27;88.16;101519.06;10109756;29;20063;-78
2022/10/13 08:53:13;;;;;;;28.85;12.32;;;;;;;11.39;87.85;101507.13;10077656;29;20131;-78
2022/10/13 08:58:27;;;;;;;31.08;11.27;;;;;;;11.60;87.59;101512.00;10092613;29;20044;-78
2022/10/13 09:03:29;;;;;;;21.37;10.90;;;;;;;11.80;87.37;101510.75;10084008;29;20112;-78
2022/10/13 09:08:42;;;;;;;21.20;10.70;;;;;;;12.02;86.75;101517.44;10073594;29;20123;-77
2022/10/13 09:13:44;;;;;;;22.40;11.63;;;;;;;12.26;86.31;101496.91;10087770;29;20425;-79
2022/10/13 09:18:46;;;;;;;20.85;10.68;;;;;;;12.47;85.68;101507.00;10071397;29;20068;-78
2022/10/13 09:23:52;;;;;;;25.30;11.95;;;;;;;12.55;85.26;101498.41;10108417;29;20310;-79
2022/10/13 09:28:54;;;;;;;23.45;10.90;;;;;;;12.86;84.58;101500.75;10077208;29;20048;-80
2022/10/13 09:34:08;;;;;;;19.70;9.90;;;;;;;13.02;84.10;101502.81;10109621;29;20067;-78
2022/10/13 09:39:15;;;;;;;19.95;10.90;;;;;;;13.12;83.48;101502.97;10089013;29;20052;-79
2022/10/13 09:44:30;;;;;;;21.98;10.40;;;;;;;13.13;83.23;101497.75;10102063;29;20083;-78
2022/10/13 09:49:34;;;;;;;18.45;9.93;;;;;;;13.76;82.89;101495.31;10087645;29;20060;-78
2022/10/13 09:54:54;;;;;;;24.55;10.77;;;;;;;14.38;81.74;101490.91;10106289;29;20211;-79
2022/10/13 10:00:21;;;;;;;20.38;10.68;;;;;;;14.78;80.38;101489.66;10107432;29;20140;-79
2022/10/13 10:05:37;;;;;;;19.55;10.00;;;;;;;14.13;79.60;101498.50;10083264;29;20048;-77
2022/10/13 10:10:40;;;;;;;28.55;9.73;;;;;;;13.87;80.01;101490.22;10094553;29;20119;-78
2022/10/13 10:15:42;;;;;;;20.35;10.13;;;;;;;13.69;80.52;101491.72;10112624;29;20053;-76
2022/10/13 10:20:53;;;;;;;21.95;11.27;;;;;;;13.65;80.88;101491.66;10105938;29;20130;-77
2022/10/13 10:26:05;;;;;;;21.75;10.85;;;;;;;13.55;81.29;101491.47;10110648;29;20060;-77
2022/10/13 10:31:28;;;;;;;27.45;11.73;;;;;;;13.54;81.47;101480.94;10087661;29;20064;-76
2022/10/13 10:36:47;;;;;;;22.02;10.18;;;;;;;13.65;81.62;101475.88;10102710;29;20575;-76
2022/10/13 10:42:10;;;;;;;30.83;12.05;;;;;;;13.76;81.88;101474.25;10111573;29;20080;-76
2022/10/13 10:47:26;;;;;;;27.33;10.68;;;;;;;14.01;81.61;101464.09;10100568;29;20049;-76
2022/10/13 10:53:08;;;;;;;22.63;10.80;;;;;;;14.36;81.44;101472.44;10108321;29;20069;-76
2022/10/13 10:58:21;;;;;;;23.63;11.13;;;;;;;14.58;80.84;101463.06;10091841;29;20073;-77
2022/10/13 11:03:32;;;;;;;20.95;9.77;;;;;;;14.84;80.09;101465.09;10098686;29;20053;-77
2022/10/13 11:08:36;;;;;;;20.08;9.45;;;;;;;14.84;79.95;101457.19;10093742;29;20116;-79
2022/10/13 11:13:58;;;;;;;24.35;9.80;;;;;;;14.79;79.88;101454.53;10121132;29;20060;-78
2022/10/13 11:19:17;;;;;;;21.10;9.38;;;;;;;14.68;79.79;101450.88;10106249;29;20112;-77
2022/10/13 11:24:40;;;;;;;18.27;8.88;;;;;;;14.59;80.01;101442.84;10121344;29;20163;-77
2022/10/13 11:29:50;;;;;;;18.95;9.15;;;;;;;14.43;79.96;101436.53;10121962;29;20083;-77
2022/10/13 11:35:04;;;;;;;21.95;9.15;;;;;;;14.31;80.17;101419.69;10103382;29;20057;-78
2022/10/13 11:40:24;;;;;;;13.88;8.05;;;;;;;14.35;80.43;101427.63;10119735;29;20099;-79
2022/10/13 11:45:48;;;;;;;16.33;8.40;;;;;;;14.36;80.67;101424.16;10117913;29;20496;-77
2022/10/13 11:51:09;;;;;;;19.08;9.05;;;;;;;14.61;80.46;101420.06;10117541;29;20767;-77
2022/10/13 11:56:42;;;;;;;24.30;9.73;;;;;;;14.87;80.42;101412.41;10110598;29;20537;-77
2022/10/13 12:01:58;;;;;;;23.80;10.82;;;;;;;15.09;79.75;101412.63;10097894;29;20699;-77
2022/10/13 12:07:03;;;;;;;26.48;10.65;;;;;;;15.18;79.07;101407.41;10103007;29;20057;-77
2022/10/13 12:12:15;;;;;;;19.95;10.50;;;;;;;15.17;78.74;101413.56;10105855;29;20287;-78
2022/10/13 12:17:29;;;;;;;24.80;10.40;;;;;;;15.32;78.16;101410.16;10105368;29;20045;-78
2022/10/13 12:22:32;;;;;;;20.35;9.85;;;;;;;15.28;78.20;101403.06;10074886;29;20049;-78
2022/10/13 12:27:47;;;;;;;23.13;9.82;;;;;;;15.26;77.96;101400.44;10089305;29;20060;-78
2022/10/13 12:32:52;;;;;;;17.20;8.83;;;;;;;15.00;77.83;101395.81;10107680;29;20100;-76
2022/10/13 12:37:55;;;;;;;20.63;9.25;;;;;;;14.96;78.38;101398.44;10113383;29;20048;-77
2022/10/13 12:42:57;;;;;;;21.30;10.70;;;;;;;14.79;78.88;101395.66;10095694;29;20113;-77
2022/10/13 12:47:58;;;;;;;24.40;10.13;;;;;;;14.93;79.39;101386.09;10109322;29;20048;-77
2022/10/13 12:53:20;;;;;;;19.65;8.75;;;;;;;15.05;79.58;101393.22;10118647;29;20417;-77
2022/10/13 12:58:26;;;;;;;17.92;9.02;;;;;;;14.95;79.71;101387.00;10112589;29;20049;-77
2022/10/13 13:03:28;;;;;;;18.42;9.32;;;;;;;14.91;79.83;101393.13;10092505;29;20056;-76
2022/10/13 13:08:30;;;;;;;23.65;9.63;;;;;;;14.73;79.94;101387.69;10093323;29;20064;-77
2022/10/13 13:13:32;;;;;;;17.73;8.98;;;;;;;14.67;80.39;101384.09;10114689;29;20057;-78
2022/10/13 13:18:40;;;;;;;19.45;9.00;;;;;;;14.51;80.75;101387.41;10107284;29;20501;-76
2022/10/13 13:23:45;;;;;;;19.35;9.15;;;;;;;14.38;81.43;101390.78;10091864;29;20224;-76
2022/10/13 13:28:55;;;;;;;16.13;8.57;;;;;;;14.27;81.64;101378.38;10105352;29;20581;-77
2022/10/13 13:33:56;;;;;;;17.60;8.25;;;;;;;14.26;82.25;101381.91;10111000;29;20061;-77
2022/10/13 13:38:58;;;;;;;16.88;9.20;;;;;;;14.11;82.98;101376.44;10099625;29;20119;-77
2022/10/13 13:43:59;;;;;;;17.67;8.25;;;;;;;14.01;83.46;101385.09;10095998;29;20057;-77
2022/10/13 13:49:02;;;;;;;20.73;8.20;;;;;;;14.00;84.05;101376.31;10091456;29;20049;-77
2022/10/13 13:54:05;;;;;;;19.73;7.63;;;;;;;14.08;84.74;101374.66;10094904;29;20052;-78
2022/10/13 13:59:07;;;;;;;20.20;8.95;;;;;;;13.95;85.61;101376.25;10101192;29;20048;-78
2022/10/13 14:04:09;;;;;;;15.65;7.85;;;;;;;13.80;86.21;101376.06;10112767;29;20521;-79
2022/10/13 14:09:11;;;;;;;18.50;9.00;;;;;;;13.77;86.97;101370.75;10100318;29;20049;-79
2022/10/13 14:14:12;;;;;;;18.08;9.40;;;;;;;13.71;87.67;101382.09;10102002;29;20049;-78
2022/10/13 14:19:14;;;;;;;17.48;9.05;;;;;;;13.54;87.95;101384.50;10115204;29;20045;-80
2022/10/13 14:24:18;;;;;;;18.70;9.35;;;;;;;13.48;88.77;101373.88;10104038;29;20060;-79
2022/10/13 14:29:19;;;;;;;18.35;8.80;;;;;;;13.51;89.19;101373.91;10093506;29;20049;-79
2022/10/13 14:34:21;;;;;;;20.02;9.38;;;;;;;13.49;89.41;101373.00;10099346;29;20056;-79
2022/10/13 14:39:23;;;;;;;22.38;10.45;;;;;;;13.46;89.82;101359.78;10080181;29;20127;-79
2022/10/13 14:44:25;;;;;;;21.70;9.82;;;;;;;13.41;90.05;101356.22;10086242;29;20064;-80
2022/10/13 14:49:27;;;;;;;19.20;10.30;;;;;;;13.42;90.38;101357.97;10105898;29;20045;-79
2022/10/13 14:54:30;;;;;;;20.85;11.15;;;;;;;13.47;90.45;101369.47;10112868;29;20544;-78
2022/10/13 14:59:33;;;;;;;24.25;10.57;;;;;;;13.41;90.67;101366.75;10075653;29;20056;-82
2022/10/13 15:04:35;;;;;;;24.90;11.48;;;;;;;13.35;90.77;101361.41;10135449;29;20112;-83
2022/10/13 15:09:37;;;;;;;19.35;11.10;;;;;;;13.27;91.08;101359.50;10131004;29;20076;-80
2022/10/13 15:14:53;;;;;;;21.45;11.55;;;;;;;13.22;91.37;101355.91;10120467;29;20053;-78
2022/10/13 15:19:55;;;;;;;24.48;11.60;;;;;;;13.08;91.67;101357.44;10114890;29;20048;-77
2022/10/13 15:24:57;;;;;;;19.27;11.05;;;;;;;12.94;91.87;101358.97;10110002;29;20832;-77
2022/10/13 15:29:58;;;;;;;20.95;11.70;;;;;;;12.89;92.44;101366.78;10107176;29;20175;-78
2022/10/13 15:35:00;;;;;;;24.00;11.77;;;;;;;12.84;92.80;101357.94;10117633;29;20057;-80
2022/10/13 15:40:04;;;;;;;25.05;12.88;;;;;;;12.84;93.07;101353.56;10090099;29;20512;-79
2022/10/13 15:45:05;;;;;;;21.10;12.90;;;;;;;12.83;93.34;101354.41;10117501;29;20424;-82
2022/10/13 15:50:12;;;;;;;24.60;13.40;;;;;;;12.79;93.66;101355.22;10111351;29;20113;-80
2022/10/13 15:55:13;;;;;;;23.90;13.10;;;;;;;12.73;93.79;101355.13;10123669;29;20135;-81
2022/10/13 16:00:15;;;;;;;21.65;13.35;;;;;;;12.71;94.07;101348.94;10121208;29;20053;-82
2022/10/13 16:05:18;;;;;;;25.58;14.68;;;;;;;12.74;94.26;101349.00;10120584;29;20060;-80
2022/10/13 16:10:19;;;;;;;23.70;14.05;;;;;;;12.78;94.30;101347.31;10097648;29;20053;-80
2022/10/13 16:15:21;;;;;;;23.77;13.25;;;;;;;12.76;94.57;101344.66;10113392;29;20052;-80
2022/10/13 16:20:22;;;;;;;24.75;14.75;;;;;;;12.76;94.69;101346.41;10109656;29;20053;-84
2022/10/13 16:25:25;;;;;;;26.17;15.02;;;;;;;12.73;94.85;101348.13;10104544;29;20056;-81
2022/10/13 16:30:29;;;;;;;30.40;15.75;;;;;;;12.69;94.81;101337.53;10084474;29;20840;-81
2022/10/13 16:35:30;;;;;;;26.40;13.95;;;;;;;12.69;95.07;101342.78;10069809;29;20053;-81
2022/10/13 16:40:36;;;;;;;31.33;14.85;;;;;;;12.65;95.13;101352.34;10087518;29;20064;-85
2022/10/13 16:45:38;;;;;;;24.88;13.75;;;;;;;12.63;95.35;101345.31;10087961;29;20057;-82
2022/10/13 16:51:04;;;;;;;30.40;15.30;;;;;;;12.62;95.46;101343.53;10085151;29;20085;-81
2022/10/13 16:56:07;;;;;;;25.42;15.57;;;;;;;12.62;95.50;101340.91;10072702;29;20402;-83
2022/10/13 17:01:10;;;;;;;28.40;15.15;;;;;;;12.62;95.74;101340.91;10063937;29;20152;-84
2022/10/13 17:06:12;;;;;;;22.42;14.35;;;;;;;12.63;95.57;101342.69;10081947;29;20068;-82
2022/10/13 17:11:20;;;;;;;28.40;15.40;;;;;;;12.62;95.72;101347.03;10084893;29;20060;-81
2022/10/13 17:16:23;;;;;;;29.67;15.65;;;;;;;12.63;96.00;101347.94;10086913;29;20063;-82
2022/10/13 17:21:25;;;;;;;28.48;16.25;;;;;;;12.63;95.99;101342.69;10087714;29;20528;-81
2022/10/13 17:26:33;;;;;;;37.38;18.90;;;;;;;12.61;96.04;101341.75;10592619;27;21122;-80
2022/10/13 17:31:35;;;;;;;27.15;15.73;;;;;;;12.54;96.16;101344.28;10538272;28;20518;-82
2022/10/13 17:36:37;;;;;;;24.38;13.02;;;;;;;12.54;96.03;101352.16;10550676;28;20059;-81
2022/10/13 17:41:42;;;;;;;26.60;12.85;;;;;;;12.50;96.16;101350.31;10531615;28;20388;-82
2022/10/13 17:46:44;;;;;;;24.00;13.05;;;;;;;12.44;96.42;101351.97;10528297;28;20101;-80
2022/10/13 17:51:50;;;;;;;22.77;12.98;;;;;;;12.41;96.45;101352.78;10527571;28;20052;-79
2022/10/13 17:56:54;;;;;;;27.02;12.45;;;;;;;12.42;96.49;101343.19;10517608;28;20045;-79
2022/10/13 18:01:56;;;;;;;24.02;12.00;;;;;;;12.36;96.54;101349.19;10508620;28;20040;-80
2022/10/13 18:06:57;;;;;;;24.10;12.45;;;;;;;12.33;96.51;101354.41;10522055;28;20095;-78
2022/10/13 18:11:59;;;;;;;25.88;12.07;;;;;;;12.32;96.64;101353.50;10524913;28;20048;-79
2022/10/13 18:17:00;;;;;;;23.38;12.95;;;;;;;12.27;96.50;101354.28;10509827;28;20076;-79
2022/10/13 18:22:02;;;;;;;23.92;11.32;;;;;;;12.26;96.53;101353.38;10525637;28;20039;-79
2022/10/13 18:27:04;;;;;;;25.05;11.95;;;;;;;12.28;96.78;101351.69;10525022;28;20090;-78
2022/10/13 18:32:09;;;;;;;21.27;11.43;;;;;;;12.25;96.70;101354.25;10520292;28;20036;-80
2022/10/13 18:37:10;;;;;;;22.02;11.32;;;;;;;12.20;96.54;101361.16;10484407;28;20052;-78
2022/10/13 18:42:12;;;;;;;22.17;11.35;;;;;;;12.16;96.72;101357.59;10489132;28;20051;-79
2022/10/13 18:47:14;;;;;;;22.58;11.50;;;;;;;12.12;96.65;101350.50;10508990;28;20051;-78
2022/10/13 18:52:16;;;;;;;24.20;11.73;;;;;;;12.09;96.70;101353.06;10511748;28;20413;-79
2022/10/13 18:57:17;;;;;;;20.52;10.93;;;;;;;12.06;96.77;101347.75;10489688;28;20043;-78
2022/10/13 19:02:22;;;;;;;27.40;11.65;;;;;;;12.02;96.68;101343.28;10510702;28;20139;-78
2022/10/13 19:07:23;;;;;;;25.63;11.57;;;;;;;12.04;96.84;101349.47;10513635;28;20048;-79
2022/10/13 19:12:26;;;;;;;21.38;11.50;;;;;;;11.99;96.93;101354.63;10506301;28;20047;-79
2022/10/13 19:17:28;;;;;;;22.33;10.93;;;;;;;11.96;96.78;101354.53;10490660;28;20047;-78
2022/10/13 19:22:29;;;;;;;20.67;12.38;;;;;;;11.95;96.83;101351.88;10505787;28;20045;-78
2022/10/13 19:27:31;;;;;;;24.85;12.73;;;;;;;11.96;96.90;101351.03;10512261;28;20098;-78
2022/10/13 19:32:32;;;;;;;23.95;12.32;;;;;;;11.94;97.00;101345.75;10505064;28;20036;-78
2022/10/13 19:37:36;;;;;;;22.63;12.60;;;;;;;11.94;96.83;101353.63;10512363;28;20044;-78
2022/10/13 19:42:38;;;;;;;24.33;12.88;;;;;;;11.95;97.15;101354.50;10517490;28;20040;-79
2022/10/13 19:47:40;;;;;;;28.08;13.30;;;;;;;11.96;97.12;101359.78;10517955;28;20040;-78
2022/10/13 19:52:41;;;;;;;23.10;12.15;;;;;;;11.97;97.21;101364.19;10499609;28;20131;-79
2022/10/13 19:57:43;;;;;;;24.10;12.90;;;;;;;11.97;97.24;101363.31;10502139;28;20040;-79
2022/10/13 20:02:45;;;;;;;24.60;13.48;;;;;;;11.91;97.38;101358.78;10496545;28;20047;-79
2022/10/13 20:07:47;;;;;;;24.77;13.13;;;;;;;11.94;97.41;101361.50;10502939;28;20169;-79
2022/10/13 20:12:48;;;;;;;27.50;14.48;;;;;;;11.93;97.44;101358.84;10496554;28;20528;-78
2022/10/13 20:17:50;;;;;;;23.73;13.95;;;;;;;11.99;97.47;101365.13;10492532;28;20436;-79
2022/10/13 20:22:52;;;;;;;25.38;14.13;;;;;;;11.97;97.65;101363.31;10505439;28;20041;-79
2022/10/13 20:27:53;;;;;;;25.23;14.38;;;;;;;11.99;97.72;101365.13;10506217;28;20048;-78
2022/10/13 20:32:56;;;;;;;29.48;16.67;;;;;;;11.98;97.81;101370.31;10511214;28;20051;-79
2022/10/13 20:37:59;;;;;;;28.65;16.13;;;;;;;11.95;97.80;101365.91;10504959;28;20056;-78
2022/10/13 20:43:00;;;;;;;29.60;16.33;;;;;;;11.92;97.75;101378.03;10498782;28;20048;-79
2022/10/13 20:48:02;;;;;;;29.77;16.02;;;;;;;11.92;97.79;101373.69;10512218;28;20106;-79
2022/10/13 20:53:04;;;;;;;29.55;16.58;;;;;;;11.95;97.86;101367.63;10497319;28;20683;-78
2022/10/13 20:58:06;;;;;;;28.30;17.30;;;;;;;11.93;97.77;101369.34;10490982;28;20171;-78
2022/10/13 21:03:07;;;;;;;26.45;16.98;;;;;;;11.91;97.88;101366.66;10512551;28;20531;-78
2022/10/13 21:08:10;;;;;;;29.13;17.80;;;;;;;11.93;97.84;101364.97;10506178;28;20079;-78
2022/10/13 21:13:13;;;;;;;32.17;17.67;;;;;;;11.91;98.08;101369.28;10499351;28;20051;-79
2022/10/13 21:18:15;;;;;;;30.80;17.20;;;;;;;11.91;97.75;101360.53;10489210;28;20036;-76
2022/10/13 21:23:16;;;;;;;27.27;16.45;;;;;;;11.91;97.96;101352.66;10495087;28;20066;-78
2022/10/13 21:28:18;;;;;;;29.27;17.67;;;;;;;11.92;97.91;101354.41;10495486;28;20044;-78
2022/10/13 21:33:20;;;;;;;32.45;17.02;;;;;;;11.91;98.08;101345.66;10492036;28;20044;-78
2022/10/13 21:38:24;;;;;;;30.13;18.10;;;;;;;11.89;98.09;101351.72;10498507;28;20136;-78
2022/10/13 21:43:25;;;;;;;28.92;17.52;;;;;;;11.87;98.00;101348.19;10504484;28;20077;-78
2022/10/13 21:48:27;;;;;;;33.78;18.13;;;;;;;11.87;98.05;101349.06;10488047;28;20048;-78
2022/10/13 21:53:28;;;;;;;28.88;18.27;;;;;;;11.88;98.15;101349.97;10491613;28;20090;-78
2022/10/13 21:58:30;;;;;;;30.63;18.10;;;;;;;11.88;98.09;101350.84;10497813;28;20058;-77
2022/10/13 22:03:33;;;;;;;30.02;17.98;;;;;;;11.88;98.13;101349.97;10504507;28;20052;-76
2022/10/13 22:08:39;;;;;;;31.85;18.52;;;;;;;11.91;98.05;101347.41;10500944;28;20506;-78
2022/10/13 22:13:57;;;;;;;32.90;17.92;;;;;;;11.93;98.20;101345.72;10513153;28;20131;-77
2022/10/13 22:18:59;;;;;;;31.02;18.00;;;;;;;11.92;98.02;101344.81;10517777;28;20460;-77
2022/10/13 22:24:03;;;;;;;33.75;18.98;;;;;;;11.90;98.13;101343.00;10507920;28;20048;-78
2022/10/13 22:29:07;;;;;;;33.58;18.25;;;;;;;11.92;98.14;101338.66;10497795;28;20154;-77
2022/10/13 22:34:09;;;;;;;33.63;18.23;;;;;;;11.90;98.08;101325.53;10501565;28;20493;-77
2022/10/13 22:39:11;;;;;;;35.80;19.30;;;;;;;11.90;98.18;101329.91;10518285;28;20051;-80
2022/10/13 22:44:13;;;;;;;33.20;20.08;;;;;;;11.88;98.19;101332.47;10517190;28;20044;-78
2022/10/13 22:49:15;;;;;;;37.53;20.52;;;;;;;11.90;98.26;101328.16;10496108;28;20052;-78
2022/10/13 22:54:16;;;;;;;35.40;20.60;;;;;;;11.91;98.30;101323.81;10513155;28;20457;-77
2022/10/13 22:59:18;;;;;;;31.30;19.95;;;;;;;11.94;98.50;101329.16;10515422;28;20044;-78
2022/10/13 23:04:20;;;;;;;35.70;21.55;;;;;;;11.97;98.48;101321.31;10511033;28;20132;-78